createdAt,value
2019-02-19T00:04:06.278Z,1017.43
2019-02-19T00:09:07.645Z,1017.39
2019-02-19T00:14:06.431Z,1017.35
2019-02-19T00:19:06.994Z,1017.4
2019-02-19T00:23:06.936Z,1017.34
2019-02-19T00:28:08.379Z,1017.27
2019-02-19T00:33:06.121Z,1017.32
2019-02-19T00:38:07.881Z,1017.11
2019-02-19T00:43:06.294Z,1017.17
2019-02-19T00:48:07.014Z,1017.13
2019-02-19T00:53:06.724Z,1017.16
2019-02-19T00:58:07.557Z,1017.07
2019-02-19T01:03:06.556Z,1017.07
2019-02-19T01:07:07.784Z,1016.92
2019-02-19T01:12:06.149Z,1016.94
2019-02-19T01:17:07.747Z,1016.98
2019-02-19T01:22:06.589Z,1016.95
2019-02-19T01:27:07.409Z,1016.93
2019-02-19T01:32:06.970Z,1016.93
2019-02-19T01:37:07.684Z,1016.88
2019-02-19T01:41:08.273Z,1016.81
2019-02-19T01:46:06.856Z,1016.76
2019-02-19T01:51:07.591Z,1016.69
2019-02-19T01:56:06.382Z,1016.67
2019-02-19T02:01:06.766Z,1016.61
2019-02-19T02:06:08.287Z,1016.62
2019-02-19T02:11:09.357Z,1016.54
2019-02-19T02:16:06.193Z,1016.5
2019-02-19T02:20:06.353Z,1016.51
2019-02-19T02:21:07.482Z,1016.51
2019-02-19T02:25:07.454Z,1016.46
2019-02-19T02:30:07.402Z,1016.45
2019-02-19T02:35:08.036Z,1016.42
2019-02-19T02:40:06.358Z,1016.48
2019-02-19T02:45:08.252Z,1016.42
2019-02-19T02:50:06.234Z,1016.36
2019-02-19T02:54:07.222Z,1016.45
2019-02-19T02:59:06.990Z,1016.34
2019-02-19T03:04:07.440Z,1016.33
2019-02-19T03:09:06.836Z,1016.36
2019-02-19T03:14:07.797Z,1016.33
2019-02-19T03:19:06.441Z,1016.42
2019-02-19T03:24:07.388Z,1016.46
2019-02-19T03:29:06.207Z,1016.43
2019-02-19T03:33:07.865Z,1016.4
2019-02-19T03:38:07.793Z,1016.41
2019-02-19T03:43:07.165Z,1016.39
2019-02-19T03:48:07.164Z,1016.38
2019-02-19T03:53:07.079Z,1016.31
2019-02-19T03:58:07.339Z,1016.38
2019-02-19T04:03:07.652Z,1016.31
2019-02-19T04:07:07.533Z,1016.39
2019-02-19T04:12:08.091Z,1016.46
2019-02-19T04:17:06.907Z,1016.45
2019-02-19T04:22:07.218Z,1016.43
2019-02-19T04:27:08.075Z,1016.4
2019-02-19T04:32:07.726Z,1016.39
2019-02-19T04:37:07.244Z,1016.44
2019-02-19T04:42:07.493Z,1016.38
2019-02-19T04:46:07.318Z,1016.44
2019-02-19T04:51:07.530Z,1016.43
2019-02-19T04:56:07.374Z,1016.4
2019-02-19T05:01:07.100Z,1016.32
2019-02-19T05:06:06.899Z,1016.36
2019-02-19T05:11:07.620Z,1016.36
2019-02-19T05:16:07.415Z,1016.36
2019-02-19T05:21:07.396Z,1016.41
2019-02-19T05:25:10.039Z,1016.42
2019-02-19T05:30:09.153Z,1016.56
2019-02-19T05:35:07.128Z,1016.52
2019-02-19T05:40:07.855Z,1016.59
2019-02-19T05:45:09.030Z,1016.58
2019-02-19T05:50:07.088Z,1016.54
2019-02-19T05:55:07.431Z,1016.57
2019-02-19T06:00:09.396Z,1016.57
2019-02-19T06:04:07.414Z,1016.53
2019-02-19T06:09:08.048Z,1016.5
2019-02-19T06:14:07.683Z,1016.63
2019-02-19T06:19:07.689Z,1016.72
2019-02-19T06:24:07.272Z,1016.75
2019-02-19T06:29:07.540Z,1016.73
2019-02-19T06:34:07.091Z,1016.71
2019-02-19T06:39:08.296Z,1016.79
2019-02-19T06:43:07.635Z,1016.94
2019-02-19T06:48:07.157Z,1016.97
2019-02-19T06:53:07.323Z,1016.99
2019-02-19T06:58:06.727Z,1017.06
2019-02-19T07:03:07.627Z,1017.15
2019-02-19T07:08:07.939Z,1017.15
2019-02-19T07:13:07.029Z,1017.2
2019-02-19T07:17:15.248Z,1017.16
2019-02-19T07:22:07.964Z,1017.16
2019-02-19T07:27:07.593Z,1017.2
2019-02-19T07:32:07.741Z,1017.27
2019-02-19T07:37:07.325Z,1017.28
2019-02-19T07:42:07.114Z,1017.18
2019-02-19T07:47:07.086Z,1017.3
2019-02-19T07:51:07.429Z,1017.28
2019-02-19T07:56:07.104Z,1017.36
2019-02-19T08:01:07.589Z,1017.33
2019-02-19T08:06:07.055Z,1017.38
2019-02-19T08:11:07.837Z,1017.37
2019-02-19T08:16:07.288Z,1017.54
2019-02-19T08:21:07.544Z,1017.64
2019-02-19T08:26:07.067Z,1017.62
2019-02-19T08:30:10.924Z,1017.64
2019-02-19T08:35:07.617Z,1017.68
2019-02-19T08:40:07.208Z,1017.73
2019-02-19T08:45:08.710Z,1017.68
2019-02-19T08:50:07.999Z,1017.65
2019-02-19T08:55:07.569Z,1017.7
2019-02-19T09:00:09.633Z,1017.76
2019-02-19T09:05:06.745Z,1017.6
2019-02-19T09:09:08.483Z,1017.63
2019-02-19T09:14:07.131Z,1017.69
2019-02-19T09:19:07.206Z,1017.64
2019-02-19T09:24:10.278Z,1017.76
2019-02-19T09:29:07.446Z,1017.75
2019-02-19T09:34:07.712Z,1017.79
2019-02-19T09:39:08.357Z,1017.66
2019-02-19T09:44:06.846Z,1017.74
2019-02-19T09:48:06.923Z,1017.71
2019-02-19T09:53:07.281Z,1017.71
2019-02-19T09:58:06.929Z,1017.8
2019-02-19T10:03:06.730Z,1017.86
2019-02-19T10:08:08.000Z,1017.96
2019-02-19T10:13:07.198Z,1018
2019-02-19T10:18:11.496Z,1017.92
2019-02-19T10:22:07.857Z,1017.99
2019-02-19T10:27:07.325Z,1017.92
2019-02-19T10:32:08.074Z,1017.99
2019-02-19T10:37:07.508Z,1018.01
2019-02-19T10:42:07.206Z,1018.06
2019-02-19T10:47:07.673Z,1018.15
2019-02-19T10:52:07.892Z,1018.21
2019-02-19T10:56:07.384Z,1018.16
2019-02-19T11:01:07.993Z,1018.15
2019-02-19T11:06:07.552Z,1018.2
2019-02-19T11:11:07.154Z,1018.22
2019-02-19T11:16:07.368Z,1018.1
2019-02-19T11:21:07.605Z,1018.09
2019-02-19T11:26:07.073Z,1018.02
2019-02-19T11:31:07.195Z,1017.98
2019-02-19T11:35:07.808Z,1017.97
2019-02-19T11:40:07.371Z,1018.01
2019-02-19T11:45:08.797Z,1017.96
2019-02-19T11:50:07.507Z,1017.91
2019-02-19T11:55:07.520Z,1018.01
2019-02-19T12:00:08.661Z,1017.92
2019-02-19T12:05:08.098Z,1018.02
2019-02-19T12:09:08.068Z,1018
2019-02-19T12:14:07.088Z,1018.06
2019-02-19T12:15:08.554Z,1018.06
2019-02-19T12:19:07.599Z,1017.98
2019-02-19T12:24:07.190Z,1018.05
2019-02-19T12:29:07.320Z,1018.02
2019-02-19T12:34:07.388Z,1017.92
2019-02-19T12:39:07.641Z,1017.86
2019-02-19T12:44:07.812Z,1017.81
2019-02-19T12:48:07.843Z,1017.8
2019-02-19T12:53:07.522Z,1017.74
2019-02-19T12:58:07.437Z,1017.76
2019-02-19T13:03:07.738Z,1017.7
2019-02-19T13:08:07.559Z,1017.69
2019-02-19T13:13:06.834Z,1017.71
2019-02-19T13:18:06.859Z,1017.76
2019-02-19T13:23:06.864Z,1017.7
2019-02-19T13:27:08.088Z,1017.7
2019-02-19T13:32:07.045Z,1017.68
2019-02-19T13:37:07.818Z,1017.59
2019-02-19T13:42:07.165Z,1017.66
2019-02-19T13:47:07.851Z,1017.69
2019-02-19T13:52:07.427Z,1017.57
2019-02-19T13:57:06.697Z,1017.69
2019-02-19T14:01:07.756Z,1017.72
2019-02-19T14:06:07.380Z,1017.73
2019-02-19T14:11:07.733Z,1017.79
2019-02-19T14:16:07.333Z,1017.88
2019-02-19T14:21:06.912Z,1017.9
2019-02-19T14:26:07.139Z,1017.94
2019-02-19T14:31:06.716Z,1017.95
2019-02-19T14:36:07.487Z,1017.85
2019-02-19T14:40:11.509Z,1017.92
2019-02-19T14:45:08.680Z,1017.91
2019-02-19T14:50:08.123Z,1017.94
2019-02-19T14:55:07.922Z,1017.95
2019-02-19T15:00:09.532Z,1017.99
2019-02-19T15:05:08.208Z,1018.01
2019-02-19T15:10:07.425Z,1017.96
2019-02-19T15:14:07.063Z,1018.03
2019-02-19T15:19:07.346Z,1018.09
2019-02-19T15:24:07.088Z,1018.07
2019-02-19T15:29:06.966Z,1018.12
2019-02-19T15:34:07.711Z,1018.12
2019-02-19T15:39:08.036Z,1018.19
2019-02-19T15:44:06.934Z,1018.21
2019-02-19T15:48:08.359Z,1018.22
2019-02-19T15:49:07.200Z,1018.22
2019-02-19T15:53:07.435Z,1018.15
2019-02-19T15:58:07.289Z,1018.15
2019-02-19T16:03:07.371Z,1018.19
2019-02-19T16:08:07.163Z,1018.23
2019-02-19T16:13:07.524Z,1018.27
2019-02-19T16:18:08.450Z,1018.24
2019-02-19T16:22:08.771Z,1018.28
2019-02-19T16:27:08.150Z,1018.19
2019-02-19T16:32:06.884Z,1018.32
2019-02-19T16:37:07.086Z,1018.37
2019-02-19T16:42:07.025Z,1018.42
2019-02-19T16:47:08.171Z,1018.31
2019-02-19T16:52:07.228Z,1018.41
2019-02-19T16:56:06.958Z,1018.46
2019-02-19T17:01:07.258Z,1018.5
2019-02-19T17:02:07.364Z,1018.5
2019-02-19T17:06:07.403Z,1018.56
2019-02-19T17:11:08.773Z,1018.53
2019-02-19T17:16:06.950Z,1018.54
2019-02-19T17:21:07.019Z,1018.57
2019-02-19T17:26:07.654Z,1018.64
2019-02-19T17:30:10.417Z,1018.65
2019-02-19T17:35:07.467Z,1018.67
2019-02-19T17:40:07.706Z,1018.69
2019-02-19T17:45:08.583Z,1018.65
2019-02-19T17:50:07.558Z,1018.68
2019-02-19T17:55:07.366Z,1018.72
2019-02-19T18:00:08.697Z,1018.74
2019-02-19T18:05:07.044Z,1018.72
2019-02-19T18:09:08.931Z,1018.77
2019-02-19T18:14:09.201Z,1018.74
2019-02-19T18:19:07.861Z,1018.66
2019-02-19T18:24:07.726Z,1018.68
2019-02-19T18:29:07.549Z,1018.75
2019-02-19T18:34:07.367Z,1018.73
2019-02-19T18:39:07.292Z,1018.7
2019-02-19T18:44:08.471Z,1018.76
2019-02-19T18:48:07.572Z,1018.8
2019-02-19T18:53:07.725Z,1018.85
2019-02-19T18:58:07.474Z,1018.85
2019-02-19T19:03:07.153Z,1018.96
2019-02-19T19:08:07.269Z,1018.9
2019-02-19T19:13:07.567Z,1018.88
2019-02-19T19:18:07.270Z,1018.96
2019-02-19T19:22:07.608Z,1018.98
2019-02-19T19:27:07.044Z,1019.04
2019-02-19T19:32:07.859Z,1019.05
2019-02-19T19:37:08.774Z,1019.15
2019-02-19T19:42:07.827Z,1019.11
2019-02-19T19:47:06.957Z,1019.16
2019-02-19T19:52:07.264Z,1019.24
2019-02-19T19:57:06.853Z,1019.38
2019-02-19T20:02:07.843Z,1019.34
2019-02-19T20:07:07.849Z,1019.42
2019-02-19T20:11:07.214Z,1019.35
2019-02-19T20:16:07.130Z,1019.39
2019-02-19T20:21:07.378Z,1019.48
2019-02-19T20:26:07.080Z,1019.56
2019-02-19T20:31:07.966Z,1019.5
2019-02-19T20:36:07.965Z,1019.52
2019-02-19T20:41:07.940Z,1019.61
2019-02-19T20:46:07.504Z,1019.69
2019-02-19T20:50:07.351Z,1019.76
2019-02-19T20:55:07.362Z,1019.86
2019-02-19T21:00:09.858Z,1020.09
2019-02-19T21:05:07.076Z,1020.13
2019-02-19T21:10:07.694Z,1020.17
2019-02-19T21:15:09.498Z,1020.13
2019-02-19T21:20:07.903Z,1020.07
2019-02-19T21:24:07.938Z,1020.02
2019-02-19T21:25:07.332Z,1020.02
2019-02-19T21:29:07.252Z,1020.02
2019-02-19T21:34:07.993Z,1019.99
2019-02-19T21:39:08.042Z,1019.95
2019-02-19T21:44:07.913Z,1019.97
2019-02-19T21:49:07.266Z,1020.05
2019-02-19T21:54:07.144Z,1020
2019-02-19T21:58:06.911Z,1020.11
2019-02-19T22:03:07.100Z,1020.17
2019-02-19T22:08:07.184Z,1020.31
2019-02-19T22:13:07.377Z,1020.25
2019-02-19T22:18:07.137Z,1020.2
2019-02-19T22:23:07.685Z,1020.26
2019-02-19T22:28:07.903Z,1020.31
2019-02-19T22:32:07.045Z,1020.29
2019-02-19T22:37:07.105Z,1020.35
2019-02-19T22:42:07.885Z,1020.41
2019-02-19T22:47:07.469Z,1020.48
2019-02-19T22:52:13.661Z,1020.52
2019-02-19T22:57:07.088Z,1020.39
2019-02-19T23:02:07.297Z,1020.53
2019-02-19T23:07:07.144Z,1020.49
2019-02-19T23:11:08.269Z,1020.53
2019-02-19T23:16:07.546Z,1020.49
2019-02-19T23:21:07.366Z,1020.5
2019-02-19T23:26:07.385Z,1020.41
2019-02-19T23:31:07.964Z,1020.45
2019-02-19T23:36:07.876Z,1020.51
2019-02-19T23:41:08.291Z,1020.45
2019-02-19T23:46:07.878Z,1020.47
2019-02-19T23:50:08.202Z,1020.62
2019-02-19T23:55:07.124Z,1020.63
